createdAt,value
2023-04-04T00:04:42.571Z,2.47
2023-04-04T00:09:44.116Z,3.00
2023-04-04T00:14:45.673Z,2.90
2023-04-04T00:19:47.269Z,2.80
2023-04-04T00:24:49.043Z,2.60
2023-04-04T00:29:50.575Z,3.10
2023-04-04T00:34:53.601Z,3.00
2023-04-04T00:39:55.243Z,3.05
2023-04-04T00:44:56.795Z,3.08
2023-04-04T00:49:58.408Z,3.75
2023-04-04T00:55:00.518Z,3.17
2023-04-04T01:00:05.150Z,3.15
2023-04-04T01:05:08.318Z,3.53
2023-04-04T01:10:11.466Z,3.40
2023-04-04T01:15:13.024Z,3.83
2023-04-04T01:20:16.127Z,3.28
2023-04-04T01:25:19.245Z,3.80
2023-04-04T01:30:20.912Z,3.58
2023-04-04T01:35:34.528Z,3.65
2023-04-04T01:40:38.366Z,3.88
2023-04-04T01:45:40.793Z,3.40
2023-04-04T01:50:42.617Z,3.55
2023-04-04T01:55:44.767Z,3.38
2023-04-04T02:00:46.373Z,3.33
2023-04-04T02:05:48.622Z,4.38
2023-04-04T02:10:50.355Z,3.70
2023-04-04T02:15:52.350Z,3.63
2023-04-04T02:20:57.685Z,3.88
2023-04-04T02:25:59.360Z,4.05
2023-04-04T02:31:04.614Z,3.60
2023-04-04T02:36:06.382Z,3.97
2023-04-04T02:41:07.947Z,4.03
2023-04-04T02:46:20.556Z,3.70
2023-04-04T02:51:23.385Z,4.05
2023-04-04T02:56:24.908Z,4.10
2023-04-04T03:01:26.527Z,4.03
2023-04-04T03:06:31.898Z,4.20
2023-04-04T03:11:33.453Z,4.15
2023-04-04T03:16:34.993Z,4.43
2023-04-04T03:21:36.789Z,5.30
2023-04-04T03:26:38.353Z,4.15
2023-04-04T03:31:40.083Z,3.60
2023-04-04T03:36:41.606Z,3.20
2023-04-04T03:41:43.069Z,3.60
2023-04-04T03:46:44.551Z,2.75
2023-04-04T03:51:46.088Z,2.70
2023-04-04T03:56:48.082Z,3.03
2023-04-04T04:01:49.621Z,2.85
2023-04-04T04:06:51.301Z,3.30
2023-04-04T04:11:52.891Z,3.10
2023-04-04T04:16:54.423Z,2.60
2023-04-04T04:21:56.224Z,3.10
2023-04-04T04:26:57.770Z,3.40
2023-04-04T04:31:59.319Z,3.55
2023-04-04T04:37:00.890Z,3.35
2023-04-04T04:42:03.148Z,3.50
2023-04-04T04:47:04.760Z,4.43
2023-04-04T04:52:06.736Z,3.53
2023-04-04T04:57:08.310Z,3.58
2023-04-04T05:02:09.854Z,4.43
2023-04-04T05:07:12.464Z,5.00
2023-04-04T05:12:14.014Z,4.43
2023-04-04T05:17:15.626Z,4.35
2023-04-04T05:22:17.182Z,4.63
2023-04-04T05:27:18.642Z,6.00
2023-04-04T05:32:25.623Z,5.70
2023-04-04T05:37:27.772Z,6.23
2023-04-04T05:42:29.524Z,6.13
2023-04-04T05:47:31.287Z,11.27
2023-04-04T05:52:32.850Z,8.75
2023-04-04T05:57:35.789Z,6.97
2023-04-04T06:02:37.422Z,6.38
2023-04-04T06:07:39.099Z,5.90
2023-04-04T06:12:41.083Z,5.70
2023-04-04T06:17:42.736Z,5.70
2023-04-04T06:22:44.210Z,5.72
2023-04-04T06:27:45.715Z,4.60
2023-04-04T06:32:47.998Z,4.75
2023-04-04T06:37:55.859Z,4.47
2023-04-04T06:48:00.204Z,3.90
2023-04-04T06:53:02.320Z,4.10
2023-04-04T06:58:03.872Z,3.67
2023-04-04T07:03:05.405Z,3.60
2023-04-04T07:08:07.065Z,3.17
2023-04-04T07:13:08.641Z,3.15
2023-04-04T07:18:10.216Z,3.22
2023-04-04T07:23:11.889Z,2.70
2023-04-04T07:28:13.748Z,3.15
2023-04-04T07:33:15.614Z,2.72
2023-04-04T07:38:17.606Z,3.08
2023-04-04T07:43:19.060Z,3.10
2023-04-04T07:48:22.473Z,3.47
2023-04-04T07:53:24.633Z,2.58
2023-04-04T07:58:26.202Z,2.63
2023-04-04T08:03:28.131Z,2.88
2023-04-04T08:08:29.845Z,2.63
2023-04-04T08:13:31.556Z,2.80
2023-04-04T08:18:33.578Z,2.90
2023-04-04T08:23:35.284Z,2.80
2023-04-04T08:28:36.907Z,2.72
2023-04-04T08:33:47.239Z,2.58
2023-04-04T08:38:49.430Z,3.42
2023-04-04T08:43:54.719Z,3.00
2023-04-04T08:48:58.723Z,2.97
2023-04-04T08:54:01.494Z,2.38
2023-04-04T08:59:03.306Z,2.60
2023-04-04T09:04:05.948Z,3.40
2023-04-04T09:09:07.777Z,3.13
2023-04-04T09:14:09.308Z,3.42
2023-04-04T09:19:10.778Z,3.35
2023-04-04T09:24:12.276Z,3.50
2023-04-04T09:29:14.222Z,3.47
2023-04-04T09:34:18.687Z,3.05
2023-04-04T09:39:21.130Z,3.30
2023-04-04T09:44:24.284Z,3.42
2023-04-04T09:49:26.493Z,3.50
2023-04-04T09:54:31.234Z,3.70
2023-04-04T09:59:34.039Z,3.60
2023-04-04T10:04:35.757Z,3.20
2023-04-04T10:09:37.839Z,3.15
2023-04-04T10:14:39.412Z,3.38
2023-04-04T10:19:41.576Z,2.15
2023-04-04T10:24:43.114Z,2.90
2023-04-04T10:29:44.729Z,2.00
2023-04-04T10:34:55.600Z,2.60
2023-04-04T10:40:04.407Z,2.72
2023-04-04T10:45:20.313Z,2.90
2023-04-04T10:50:23.699Z,2.90
2023-04-04T10:55:25.916Z,3.10
2023-04-04T11:00:27.570Z,3.03
2023-04-04T11:05:40.895Z,2.72
2023-04-04T11:10:43.577Z,3.13
2023-04-04T11:15:51.566Z,2.83
2023-04-04T11:20:54.397Z,2.70
2023-04-04T11:25:57.033Z,2.97
2023-04-04T11:31:34.870Z,2.80
2023-04-04T11:36:36.584Z,3.40
2023-04-04T11:41:47.761Z,2.60
2023-04-04T11:47:02.427Z,2.90
2023-04-04T11:52:12.717Z,2.60
2023-04-04T11:57:15.754Z,2.92
2023-04-04T12:02:22.056Z,2.50
2023-04-04T12:07:24.712Z,3.28
2023-04-04T12:12:28.370Z,3.28
2023-04-04T12:17:29.934Z,2.95
2023-04-04T12:22:35.406Z,3.28
2023-04-04T12:27:38.554Z,3.00
2023-04-04T12:32:40.071Z,3.08
2023-04-04T12:38:11.012Z,3.15
2023-04-04T12:43:17.474Z,3.20
2023-04-04T12:48:19.800Z,3.35
2023-04-04T12:53:29.373Z,3.40
2023-04-04T12:58:33.029Z,3.63
2023-04-04T13:03:38.010Z,3.08
2023-04-04T13:08:56.430Z,4.07
2023-04-04T13:14:04.327Z,3.90
2023-04-04T13:19:06.768Z,4.22
2023-04-04T13:24:08.373Z,3.97
2023-04-04T13:29:10.049Z,3.92
2023-04-04T13:34:11.537Z,3.63
2023-04-04T13:39:13.119Z,4.18
2023-04-04T13:44:16.505Z,4.30
2023-04-04T13:49:18.144Z,3.92
2023-04-04T13:54:19.664Z,3.40
2023-04-04T13:59:21.307Z,3.40
2023-04-04T14:04:24.211Z,4.53
2023-04-04T14:09:26.163Z,4.30
2023-04-04T14:14:27.715Z,3.60
2023-04-04T14:19:29.253Z,3.95
2023-04-04T14:24:30.970Z,3.97
2023-04-04T14:29:32.497Z,3.97
2023-04-04T14:34:33.983Z,4.15
2023-04-04T14:39:35.619Z,4.18
2023-04-04T14:44:37.170Z,3.33
2023-04-04T14:49:38.688Z,4.97
2023-04-04T14:54:40.471Z,4.43
2023-04-04T14:59:42.201Z,4.28
2023-04-04T15:04:43.924Z,3.90
2023-04-04T15:09:45.619Z,3.33
2023-04-04T15:14:47.172Z,3.67
2023-04-04T15:19:48.699Z,3.85
2023-04-04T15:24:50.222Z,3.38
2023-04-04T15:29:52.670Z,3.65
2023-04-04T15:34:55.570Z,3.42
2023-04-04T15:39:57.079Z,3.65
2023-04-04T15:44:58.641Z,3.72
2023-04-04T15:50:00.172Z,4.07
2023-04-04T15:55:02.083Z,3.42
2023-04-04T16:00:04.234Z,3.67
2023-04-04T16:05:06.142Z,3.58
2023-04-04T16:10:08.315Z,3.92
2023-04-04T16:15:11.756Z,3.45
2023-04-04T16:20:13.298Z,3.70
2023-04-04T16:25:15.081Z,3.83
2023-04-04T16:30:19.397Z,3.85
2023-04-04T16:35:21.212Z,3.95
2023-04-04T16:40:22.675Z,3.80
2023-04-04T16:45:24.243Z,4.88
2023-04-04T16:50:25.838Z,4.55
2023-04-04T16:55:28.874Z,5.00
2023-04-04T17:00:32.779Z,4.97
2023-04-04T17:05:34.347Z,5.43
2023-04-04T17:10:40.235Z,5.40
2023-04-04T17:15:42.039Z,6.35
2023-04-04T17:20:43.702Z,5.45
2023-04-04T17:25:45.623Z,7.05
2023-04-04T17:30:47.165Z,5.45
2023-04-04T17:35:48.682Z,5.15
2023-04-04T17:40:50.286Z,6.00
2023-04-04T17:45:52.508Z,6.03
2023-04-04T17:50:54.139Z,6.07
2023-04-04T17:55:56.580Z,6.18
2023-04-04T18:00:58.390Z,5.95
2023-04-04T18:06:00.039Z,6.43
2023-04-04T18:11:03.884Z,6.30
2023-04-04T18:16:07.227Z,6.65
2023-04-04T18:21:08.941Z,6.82
2023-04-04T18:26:10.444Z,6.47
2023-04-04T18:31:12.774Z,5.60
2023-04-04T18:36:14.324Z,6.57
2023-04-04T18:41:17.364Z,7.05
2023-04-04T18:46:18.955Z,5.13
2023-04-04T18:51:22.169Z,4.93
2023-04-04T18:56:25.017Z,5.65
2023-04-04T19:01:27.165Z,4.95
2023-04-04T19:06:30.937Z,5.90
2023-04-04T19:11:32.511Z,6.05
2023-04-04T19:16:34.229Z,5.68
2023-04-04T19:21:35.817Z,5.65
2023-04-04T19:26:38.182Z,5.03
2023-04-04T19:31:39.698Z,5.03
2023-04-04T19:36:41.863Z,4.50
2023-04-04T19:41:43.433Z,5.07
2023-04-04T19:46:44.949Z,5.07
2023-04-04T19:51:50.585Z,5.00
2023-04-04T19:57:04.781Z,4.93
2023-04-04T20:02:13.947Z,4.35
2023-04-04T20:07:16.050Z,4.80
2023-04-04T20:12:19.437Z,4.07
2023-04-04T20:17:21.103Z,5.07
2023-04-04T20:22:23.215Z,4.35
2023-04-04T20:27:26.649Z,4.43
2023-04-04T20:32:28.183Z,4.22
2023-04-04T20:37:30.874Z,5.00
2023-04-04T20:42:37.889Z,7.07
2023-04-04T20:47:52.413Z,7.03
2023-04-04T20:52:59.291Z,5.03
2023-04-04T20:58:08.605Z,4.40
2023-04-04T21:03:30.032Z,4.07
2023-04-04T21:08:44.776Z,4.22
2023-04-04T21:13:46.749Z,4.65
2023-04-04T21:18:48.313Z,4.80
2023-04-04T21:24:00.020Z,4.80
2023-04-04T21:29:05.157Z,4.93
2023-04-04T21:34:17.578Z,4.22
2023-04-04T21:39:23.872Z,4.35
2023-04-04T21:44:28.452Z,4.32
2023-04-04T21:49:29.986Z,4.57
2023-04-04T21:54:31.502Z,4.80
2023-04-04T21:59:33.098Z,4.50
2023-04-04T22:04:34.799Z,4.40
2023-04-04T22:09:38.622Z,4.43
2023-04-04T22:14:43.540Z,4.70
2023-04-04T22:19:46.668Z,5.20
2023-04-04T22:24:51.232Z,5.05
2023-04-04T22:29:52.803Z,5.55
2023-04-04T22:34:54.368Z,5.20
2023-04-04T22:39:55.921Z,5.97
2023-04-04T22:44:57.494Z,6.43
2023-04-04T22:50:04.567Z,6.00
2023-04-04T22:55:07.381Z,6.03
2023-04-04T23:00:14.605Z,5.80
2023-04-04T23:05:17.787Z,6.75
2023-04-04T23:10:19.500Z,5.88
2023-04-04T23:15:21.053Z,6.40
2023-04-04T23:20:24.022Z,5.82
2023-04-04T23:25:26.417Z,5.90
2023-04-04T23:30:28.994Z,6.43
2023-04-04T23:35:30.534Z,6.25
2023-04-04T23:40:32.072Z,5.95
2023-04-04T23:45:37.247Z,5.70
2023-04-04T23:50:39.021Z,5.35
2023-04-04T23:55:40.688Z,5.38
